TOURFACTS.DK  
Stats and Facts from Tour de France.

Tour de France 2018 starts in 257 days
  Riders   Stages   Teams   Summits   Yearly  


 
Search by year

 2017 - St. 21:  14824 starters.
  5131 different riders.
  634 teams.
  2232 stages.
  454 restdays.
  439589.60 km.
  5653 abandonnees.


Top 3
Christopher Froome86:20:55
Rigoberto Uran86:21:49
Romain Bardet86:23:15
Warren Barguil169 pt.
Primoz Roglic80 pt.
Thomas De Gendt64 pt.
Michael Matthews359 pt.
André Greipel234 pt.
Edvald Boasson Hagen220 pt.
Simon Yates86:27:09
Louis Meintjes86:29:15
Emanuel Buchmann86:54:16
Facts from Tour de France 2009
  |   Stages.  |   Stage winners.  |   Days in yellow  |   Average speed.  |   Route.  |   Teams.  |   All riders.  |   Rookies.  |   Withdrawls.  |  

  |   GC.  |   Polka  |   Green  |   White  |   Summits. (In tour)  |   Summits. (Points)  |   Miscellaneous.  |  

Stage 13 on 17 - 07 - 2009
         Owning:    Rinaldo Nocentini    
Pick a stage:  1 2 3 4 5 6 7 8 9 10 11 12 13 14 15 16 17 18 19 20 21
  VittelColmar | Dist: 200.00 km.
Cat: 3Côte de XertignyESPJuan Manuel Garate
4 points
 
Cat: 1Col du PlatzerwaselFRASylvain Chavanel
15 points
 
Cat: 2Col de la Schlucht ESPAlan Perez
10 points
 
Cat: 3BannsteinAUSHeinrich Haussler
4 points
 
Cat: 2Col du FirstplanAUSHeinrich Haussler
20 points
 

Average speed for all riders in stage:  38,538 km./hr.
    Place:Name:Team:Time:Km/h:
AUSHeinrich HausslerCHECervelo Test Team04:56:26  +  00:00:00=40,481 
ESPAmets TxurrukaESPEuskaltel - Euskadi05:00:37  +  00:04:11=39,918 
FRABrice FeilluFRAAgritubel05:02:39  +  00:06:13=39,650 
4 FRASylvain ChavanelBELQuick Step05:02:57  +  00:06:31=39,610 
5 SVKPeter VelitsDEUTeam Milram05:03:09  +  00:06:43=39,584 
6 NORThor HushovdCHECervelo Test Team05:03:09  +  00:06:43=39,584 
7 RUSVladimir EfimkinFRAAg2r La Mondiale05:03:09  +  00:06:43=39,584 
8 BELBradley WigginsUSAGarmin-Slipstream05:03:09  +  00:06:43=39,584 
9 USAGeorge HincapieUSATeam Columbia-HTC05:03:09  +  00:06:43=39,584 
10 LUXAndy SchleckDNKTeam Saxo Bank05:03:09  +  00:06:43=39,584 
11 GERAndréas KlödenKAZAstana Pro Team05:03:09  +  00:06:43=39,584 
12 FRAThierry HupondNLDSkil-Shimano05:03:09  +  00:06:43=39,584 
13 GERJens VoigtDNKTeam Saxo Bank05:03:09  +  00:06:43=39,584 
14 GERChristian KneesDEUTeam Milram05:03:09  +  00:06:43=39,584 
15 LUXFränk SchleckDNKTeam Saxo Bank05:03:09  +  00:06:43=39,584 
16 GERGrischa NiermannNLDRabobank05:03:09  +  00:06:43=39,584 
17 FRANicolas RocheFRAAg2r La Mondiale05:03:09  +  00:06:43=39,584 
18 ITAMatteo TosattoBELQuick Step05:03:09  +  00:06:43=39,584 
19 SUIDavid LoosliITALampre-N.G.C05:03:09  +  00:06:43=39,584 
20 ESPAlberto ContadorKAZAstana Pro Team05:03:09  +  00:06:43=39,584 
21 FRAJérémy RoyFRAFrancaise Des Jeux05:03:09  +  00:06:43=39,584 
22 FRAPierre RollandFRABbox Bouygues Telecom05:03:09  +  00:06:43=39,584 
23 USAChristian VandeveldeUSAGarmin-Slipstream05:03:09  +  00:06:43=39,584 
24 BELFrederik WillemsITALiquigas05:03:09  +  00:06:43=39,584 
25 GERLinus GerdemannDEUTeam Milram05:03:09  +  00:06:43=39,584 
26 ITARinaldo NocentiniFRAAg2r La Mondiale05:03:09  +  00:06:43=39,584 
27 USALance ArmstrongKAZAstana Pro Team05:03:09  +  00:06:43=39,584 
28 ESPMikel AstarlozaESPEuskaltel - Euskadi05:03:09  +  00:06:43=39,584 
29 GERTony MartinUSATeam Columbia-HTC05:03:09  +  00:06:43=39,584 
30 ESPCarlos SastreCHECervelo Test Team05:03:09  +  00:06:43=39,584 
31 AUSCadel EvansBELSilence-Lotto05:03:09  +  00:06:43=39,584 
32 BELJohan VansummerenBELSilence-Lotto05:03:09  +  00:06:43=39,584 
33 LUXKim KirchenUSATeam Columbia-HTC05:03:09  +  00:06:43=39,584 
34 RUSSerguei IvanovRUSTeam Katusha05:03:09  +  00:06:43=39,584 
35 FRAChristophe Le MevelFRAFrancaise Des Jeux05:03:09  +  00:06:43=39,584 
36 BELMaxime MonfortUSATeam Columbia-HTC05:03:09  +  00:06:43=39,584 
37 ITAVincenzo NibaliITALiquigas05:03:09  +  00:06:43=39,584 
38 FRAChristophe MoreauFRAAgritubel05:03:09  +  00:06:43=39,584 
39 RUSDenis MenchovNLDRabobank05:03:09  +  00:06:43=39,584 
40 CZERoman KreuzigerITALiquigas05:03:09  +  00:06:43=39,584 
41 GERJohannes FröhlingerDEUTeam Milram05:03:09  +  00:06:43=39,584 
42 SWEGustav LarssonDNKTeam Saxo Bank05:03:09  +  00:06:43=39,584 
43 RUSAlexandre BotcharovRUSTeam Katusha05:03:09  +  00:06:43=39,584 
44 FRAStéphane GoubertFRAAg2r La Mondiale05:03:09  +  00:06:43=39,584 
45 NEDJoost PosthumaNLDRabobank05:03:09  +  00:06:43=39,584 
46 UKRYaroslav PopovychKAZAstana Pro Team05:03:09  +  00:06:43=39,584 
47 ESPLuis León SánchezESPCaisse d´Epargne05:03:09  +  00:06:43=39,584 
48 DENNicki SørensenDNKTeam Saxo Bank05:03:09  +  00:06:43=39,584 
49 ESPLuis RodriguezESPCaisse d´Epargne05:03:09  +  00:06:43=39,584 
50 CANRyder HesjedalUSAGarmin-Slipstream05:03:09  +  00:06:43=39,584 
51 FRASandy CasarFRAFrancaise Des Jeux05:03:09  +  00:06:43=39,584 
52 DENChris Anker SørensenDNKTeam Saxo Bank05:03:09  +  00:06:43=39,584 
53 ESPGorka VerdugoESPEuskaltel - Euskadi05:03:09  +  00:06:43=39,584 
54 FRAHubert DupontFRAAg2r La Mondiale05:03:09  +  00:06:43=39,584 
55 ESPHaimar ZubeldiaKAZAstana Pro Team05:03:09  +  00:06:43=39,584 
56 ESPCarlos BarredoBELQuick Step05:03:09  +  00:06:43=39,584 
57 BELJurgen Van Den BroeckBELSilence-Lotto05:03:09  +  00:06:43=39,584 
58 FRAChristophe KernFRACofidis Le Credit En Ligne05:03:09  +  00:06:43=39,584 
59 BELSébastien RosselerBELQuick Step05:03:09  +  00:06:43=39,584 
60 ESPIgor AntonESPEuskaltel - Euskadi05:03:09  +  00:06:43=39,584 
61 MLTDavid MillarUSAGarmin-Slipstream05:03:20  +  00:06:54=39,560 
62 UKRVolodymir GustovCHECervelo Test Team05:03:22  +  00:06:56=39,556 
63 AUSMatthew LloydBELSilence-Lotto05:03:24  +  00:06:58=39,552 
64 ESPJosé Ángel GomezCHECervelo Test Team05:03:24  +  00:06:58=39,552 
65 FRAAmaël MoinardFRACofidis Le Credit En Ligne05:03:24  +  00:06:58=39,552 
66 FRAPierrick FédrigoFRABbox Bouygues Telecom05:03:24  +  00:06:58=39,552 
67 RUSYury TrofimovFRABbox Bouygues Telecom05:03:24  +  00:06:58=39,552 
68 FRADavid MoncoutiéFRACofidis Le Credit En Ligne05:03:24  +  00:06:58=39,552 
69 ESPJoan HorrachRUSTeam Katusha05:03:38  +  00:07:12=39,521 
70 ESPEgoi MartínezESPEuskaltel - Euskadi05:03:38  +  00:07:12=39,521 
71 ITAMarzio BruseghinITALampre-N.G.C05:03:38  +  00:07:12=39,521 
72 BELStijn DevolderBELQuick Step05:03:38  +  00:07:12=39,521 
73 PORSergio PaulinhoKAZAstana Pro Team05:03:38  +  00:07:12=39,521 
74 SUIFabian CancellaraDNKTeam Saxo Bank05:03:43  +  00:07:17=39,511 
75 FINCharles WegeliusBELSilence-Lotto05:03:49  +  00:07:23=39,498 
76 ITAFranco PellizottiITALiquigas05:03:56  +  00:07:30=39,482 
77 GERSebastian LangBELSilence-Lotto05:07:49  +  00:11:23=38,984 
78 FRAMaxime BouetFRAAgritubel05:14:09  +  00:17:43=38,198 
79 ESPRuben PerezESPEuskaltel - Euskadi05:14:09  +  00:17:43=38,198 
80 BELStijn VandenberghRUSTeam Katusha05:16:47  +  00:20:21=37,881 
81 DENBrian VandborgITALiquigas05:16:47  +  00:20:21=37,881 
82 GERAndreas KlierCHECervelo Test Team05:16:47  +  00:20:21=37,881 
83 NZLHayden RoulstonCHECervelo Test Team05:16:47  +  00:20:21=37,881 
84 AUSStuart O'GradyDNKTeam Saxo Bank05:16:47  +  00:20:21=37,881 
85 JPNFumiyuki BeppuNLDSkil-Shimano05:16:47  +  00:20:21=37,881 
86 AUSMichael RogersUSATeam Columbia-HTC05:16:47  +  00:20:21=37,881 
87 NEDKoen De KortNLDSkil-Shimano05:16:47  +  00:20:21=37,881 
88 ITAAlessandro BallanITALampre-N.G.C05:16:47  +  00:20:21=37,881 
89 NEDMartijn MaaskantUSAGarmin-Slipstream05:16:47  +  00:20:21=37,881 
90 ITAFilippo PozzatoRUSTeam Katusha05:16:47  +  00:20:21=37,881 
91 SUIGregory RastKAZAstana Pro Team05:16:47  +  00:20:21=37,881 
92 USADanny PateUSAGarmin-Slipstream05:16:47  +  00:20:21=37,881 
93 FRAGeoffroy LequatreFRAAgritubel05:16:47  +  00:20:21=37,881 
94 ESPJosé Ivan GutierrezESPCaisse d´Epargne05:16:47  +  00:20:21=37,881 
95 FRAJérôme PineauBELQuick Step05:16:47  +  00:20:21=37,881 
96 FRAArnaud CoyotESPCaisse d´Epargne05:16:47  +  00:20:21=37,881 
97 FRASébastien MinardFRACofidis Le Credit En Ligne05:16:47  +  00:20:21=37,881 
98 ITAMauro SantambrogioITALampre-N.G.C05:16:47  +  00:20:21=37,881 
99 GERFabian WegmannDEUTeam Milram05:16:47  +  00:20:21=37,881 
100 BLRAliaksandr KuchynskiITALiquigas05:16:47  +  00:20:21=37,881 
101 FRALaurent LefèvreFRABbox Bouygues Telecom05:16:47  +  00:20:21=37,881 
102 FRAThomas VoecklerFRABbox Bouygues Telecom05:16:47  +  00:20:21=37,881 
103 ESPJuan Manuel GarateNLDRabobank05:16:47  +  00:20:21=37,881 
104 ESPJose Luis ArrietaFRAAg2r La Mondiale05:16:47  +  00:20:21=37,881 
105 GERSimon GeschkeNLDSkil-Shimano05:16:47  +  00:20:21=37,881 
106 COLLeonardo DuqueFRACofidis Le Credit En Ligne05:16:47  +  00:20:21=37,881 
107 ESPAlan PerezESPEuskaltel - Euskadi05:16:47  +  00:20:21=37,881 
108 ESPJuan José OrozESPEuskaltel - Euskadi05:16:47  +  00:20:21=37,881 
109 ESPIñigo CuestaCHECervelo Test Team05:16:47  +  00:20:21=37,881 
110 FRACyril DesselFRAAg2r La Mondiale05:16:47  +  00:20:21=37,881 
111 NZLJulian DeanUSAGarmin-Slipstream05:16:47  +  00:20:21=37,881 
112 KAZDmitriy MuravyevKAZAstana Pro Team05:16:47  +  00:20:21=37,881 
113 FRAMickael DelageBELSilence-Lotto05:16:47  +  00:20:21=37,881 
114 FRARémi PauriolFRACofidis Le Credit En Ligne05:16:47  +  00:20:21=37,881 
115 NEDLaurens ten DamNLDRabobank05:16:47  +  00:20:21=37,881 
116 ESPOscar FreireNLDRabobank05:16:47  +  00:20:21=37,881 
117 IOMMark CavendishUSATeam Columbia-HTC05:20:10  +  00:23:44=37,480 
118 AUTBernhard EiselUSATeam Columbia-HTC05:20:10  +  00:23:44=37,480 
119 ITADaniele BennatiITALiquigas05:20:10  +  00:23:44=37,480 
120 NEDAlbert TimmerNLDSkil-Shimano05:20:10  +  00:23:44=37,480 
121 FRALloyd MondoryFRAAg2r La Mondiale05:20:10  +  00:23:44=37,480 
122 GERBert GrabschUSATeam Columbia-HTC05:20:10  +  00:23:44=37,480 
123 ITAAlessandro VanottiITALiquigas05:20:10  +  00:23:44=37,480 
124 FRAChristophe RiblonFRAAg2r La Mondiale05:20:10  +  00:23:44=37,480 
125 ITAFabio SabatiniITALiquigas05:20:10  +  00:23:44=37,480 
126 BLRYauheni HutarovichFRAFrancaise Des Jeux05:20:10  +  00:23:44=37,480 
127 FRACyril LemoineNLDSkil-Shimano05:20:10  +  00:23:44=37,480 
128 RUSMikhail IgnatyevRUSTeam Katusha05:20:10  +  00:23:44=37,480 
129 ESPJosé Joaquin RojasESPCaisse d´Epargne05:20:10  +  00:23:44=37,480 
130 AUSBrett LancasterCHECervelo Test Team05:20:10  +  00:23:44=37,480 
131 NEDStef ClementNLDRabobank05:20:10  +  00:23:44=37,480 
132 GERGerald CiolekDEUTeam Milram05:20:10  +  00:23:44=37,480 
133 RUSNikolai TrusovRUSTeam Katusha05:20:10  +  00:23:44=37,480 
134 ARGJuan Antonio FlechaNLDRabobank05:20:10  +  00:23:44=37,480 
135 NEDSteven de JonghBELQuick Step05:20:10  +  00:23:44=37,480 
136 NEDKenny van HummelNLDSkil-Shimano05:20:10  +  00:23:44=37,480 
137 ESPDavid ArroyoESPCaisse d´Epargne05:20:10  +  00:23:44=37,480 
138 FRAAnthony GeslinFRAFrancaise Des Jeux05:20:10  +  00:23:44=37,480 
139 AUSMark RenshawUSATeam Columbia-HTC05:20:10  +  00:23:44=37,480 
140 ITADaniele RighiITALampre-N.G.C05:20:10  +  00:23:44=37,480 
141 POLMarcin SapaITALampre-N.G.C05:20:10  +  00:23:44=37,480 
142 JPNYukiya ArashiroFRABbox Bouygues Telecom05:20:10  +  00:23:44=37,480 
143 FRAAlexandre PichotFRABbox Bouygues Telecom05:20:10  +  00:23:44=37,480 
144 FRASaid HaddouFRABbox Bouygues Telecom05:20:10  +  00:23:44=37,480 
145 FRABenoit VaugrenardFRAFrancaise Des Jeux05:20:10  +  00:23:44=37,480 
146 NEDNiki TerpstraDEUTeam Milram05:20:10  +  00:23:44=37,480 
147 FRAWilliam BonnetFRABbox Bouygues Telecom05:20:10  +  00:23:44=37,480 
148 BELStaf ScheirlinckxBELSilence-Lotto05:20:10  +  00:23:44=37,480 
149 FINJussi VeikkanenFRAFrancaise Des Jeux05:20:10  +  00:23:44=37,480 
150 USATyler FarrarUSAGarmin-Slipstream05:20:10  +  00:23:44=37,480 
151 FRAStéphane AugeFRACofidis Le Credit En Ligne05:20:10  +  00:23:44=37,480 
152 FRANicolas VogondyFRAAgritubel05:20:10  +  00:23:44=37,480 
153 FRASamuel DumoulinFRACofidis Le Credit En Ligne05:20:10  +  00:23:44=37,480 
154 FRASylvain CalzatiFRAAgritubel05:20:10  +  00:23:44=37,480 
155 COLRigoberto UranESPCaisse d´Epargne05:20:10  +  00:23:44=37,480 
156 BELGreg Van AvermaetBELSilence-Lotto05:20:10  +  00:23:44=37,480 
157 BELTom BoonenBELQuick Step05:20:10  +  00:23:44=37,480 
158 ITAMarco BandieraITALampre-N.G.C05:20:10  +  00:23:44=37,480 
159 ESPBingen FernandezFRACofidis Le Credit En Ligne05:20:10  +  00:23:44=37,480 
160 GERMarkus FothenDEUTeam Milram05:20:10  +  00:23:44=37,480 
161 USADavid ZabriskieUSAGarmin-Slipstream05:20:10  +  00:23:44=37,480 
162 FRAJonathan HivertNLDSkil-Shimano05:20:10  +  00:23:44=37,480 
163 SLOSimon SpilakITALampre-N.G.C05:42:11  +  00:45:45=35,069 

Withdrawls: 4
 
Rider
Team
Reason
102  FRAJérôme CoppelFRAFrancaise Des JeuxDid not finish
113  PORRui CostaESPCaisse d´EpargneDid not start
134  ITAAngelo FurlanITALampre-N.G.CDid not finish
175  FRARomain FeilluFRAAgritubelDid not finish

Todays birthdays.

1870  Hippolyte Pagie
1884  Henri Devroye
1886  Ernest Ricaux
1896  Andre Zonnequin
1897  Jean Kienlen
1903  Robert Brugére
1930  Fred De Bruyne
1930  Jean-Claude Grèt
1932  Vito Favero
1932  Norbert Kerckhove
1946  Ronald De Witte
1967  Johan Verstrepen
1969  Orlando Sergio Gomes